Portada
METAR-TAF:

METAR-TAF

Aeroports :

Libreville, Gabon

latitud: 00-27N, longitud: 009-25E, altitud: 12 m

Observació

L'informe es va fer fa 51 minuts, a les 03:00 UTC
Vent 7 kt del Sud
Temperatura 26°C
Humitat 84%
Pressió 1012 hPa
Visibilitat 10 km o més
Escasses núvols a una alçada de 1100 ft
Núvols disperses a una alçada de 3600 ft

METAR: FOOL 210300Z 17007KT 9999 FEW011 SCT036 26/23 Q1012 NOSIG

Hora: 04:51 (03:51 UTC)

Pronòstic

L'informe es va fer fa 4 hores i 51 minuts, a les 23:00 UTC
Pronòstic vàlid del 21 a les 00 UTC al 22 a les 06 UTC
Vent 10 kt del Sud/Sud-Oest
Visibilitat 10 km o més
Núvols disperses a una alçada de 1200 ft
Cel ennuvolat a una alçada de 3000 ft

TAF: FOOL 202300Z 2100/2206 20010KT 9999 SCT012 BKN030

Observacions i pronòstics meteorològics de més de 4000 aeroports (METAR i TAF).

Les estacions disponibles són els punts grocs i vermells al mapa.

Posi el ratolí al punt desitjat per veure el nom de l'estació.

Feu clic per veure les observacions i els pronòstics meteorològics.

Per canviar el mapa: feu clic els botons verds amb una creu de color negre per apropar; al botó verd amb un guió per allunyar la imatge; o en les fletxes verdes per a mapes adjacents.


METAR-TAF: